EPWR

Copernicus Wrocław Airport

Wrocław, Poland
TAF EPWR 251430Z 2515/2615 29010KT CAVOK PROB40 TEMPO 2515/2517 -SHRA BKN040CB BECMG 2523/2601 23006KT
Issued Valid From Valid To
Sep-25 @ 14:30 UTC
(3 hours ago)
Sep-25 @ 15:00 UTC
(2 hours ago)
Sep-26 @ 15:00 UTC
(in 22 hours)
Sep-25 @ 15:00 to Sep-25 @ 23:00
TAF EPWR 251430Z 2515/2615 29010KT CAVOK
Wind Visibility Clouds Conditions
290° at 10 knots 10,000+ meters
  • No significant clouds
Expired Click to View Sep-25 @ 15:00 to Sep-25 @ 17:00
PROB40 TEMPO 2515/2517 -SHRA BKN040CB
Clouds Conditions
  • Broken at 4,000' AGL
  • Light Rain
Becoming Sep-25 @ 23:00 to Sep-26 @ 15:00
BECMG 2523/2601 23006KT
Wind Visibility Clouds Conditions
230° at 6 knots 10,000+ meters
  • No significant clouds
TAF EPWR 251430Z 2515/2615 29010KT CAVOK PROB40 TEMPO 2515/2517 -SHRA BKN040CB BECMG 2523/2601 23006KT
Issued Sep-25 @ 14:30 UTC
(3 hours ago)
Valid From Sep-25 @ 15:00 UTC
(2 hours ago)
Valid To Sep-26 @ 15:00 UTC
(in 22 hours)
Sep-25 @ 15:00 - Sep-25 @ 23:00
Wind Visibility
290° at 10 knots 10,000+ meters
Clouds
  • No significant clouds
Conditions
Sep-25 @ 15:00 - Sep-25 @ 17:00
Clouds
  • Broken at 4,000' AGL
Conditions
  • Light Rain
Becoming Sep-25 @ 23:00 - Sep-26 @ 15:00
Wind Visibility
230° at 6 knots 10,000+ meters
Clouds
  • No significant clouds
Conditions